Time;durP1;ratioP1;P1;durP2;ratioP2;P2;SDS_P1;SDS_P2;PMS_P1;PMS_P2;Temp;Humidity;BMP_temperature;BMP_pressure;BME280_temperature;BME280_humidity;BME280_pressure;Samples;Min_cycle;Max_cycle;Signal;HPM_P1;HPM_P2
2023/01/23 00:00:32;;;;;;;157.63;73.18;;;;;;;-0.46;100.00;103401.00;5053090;28;20476;-57
2023/01/23 00:02:57;;;;;;;154.13;71.28;;;;;;;-0.46;100.00;103390.00;5052691;28;20021;-57
2023/01/23 00:05:22;;;;;;;158.55;71.30;;;;;;;-0.46;100.00;103383.28;5052893;28;20036;-57
2023/01/23 00:07:48;;;;;;;152.13;68.10;;;;;;;-0.47;100.00;103384.00;5052719;28;20025;-57
2023/01/23 00:10:13;;;;;;;155.32;69.72;;;;;;;-0.48;100.00;103393.97;5052192;28;20207;-57
2023/01/23 00:12:43;;;;;;;157.88;68.72;;;;;;;-0.49;100.00;103385.47;5052448;28;20393;-57
2023/01/23 00:15:11;;;;;;;151.45;68.05;;;;;;;-0.51;100.00;103386.91;5053115;28;20035;-57
2023/01/23 00:17:36;;;;;;;145.88;68.28;;;;;;;-0.49;100.00;103388.00;5052160;28;20057;-57
2023/01/23 00:20:03;;;;;;;151.20;68.78;;;;;;;-0.51;100.00;103387.81;5052734;28;20484;-57
2023/01/23 00:22:28;;;;;;;147.00;67.10;;;;;;;-0.51;100.00;103384.38;5052632;28;20025;-57
2023/01/23 00:24:54;;;;;;;149.43;67.63;;;;;;;-0.52;100.00;103385.09;5052102;28;20025;-57
2023/01/23 00:27:19;;;;;;;143.23;66.95;;;;;;;-0.50;100.00;103388.72;5052489;28;20031;-57
2023/01/23 00:29:44;;;;;;;153.07;67.03;;;;;;;-0.49;100.00;103390.53;5051967;28;20025;-57
2023/01/23 00:32:10;;;;;;;154.50;69.80;;;;;;;-0.49;100.00;103390.53;5052197;28;20021;-57
2023/01/23 00:34:36;;;;;;;150.18;67.82;;;;;;;-0.49;100.00;103395.59;5052256;28;20032;-57
2023/01/23 00:37:02;;;;;;;149.93;67.97;;;;;;;-0.47;100.00;103399.19;5052322;28;20032;-57
2023/01/23 00:39:27;;;;;;;156.48;71.35;;;;;;;-0.45;100.00;103412.03;5052791;28;20028;-57
2023/01/23 00:41:52;;;;;;;150.93;72.30;;;;;;;-0.44;100.00;103416.38;5052598;28;20545;-57
2023/01/23 00:44:17;;;;;;;155.38;71.45;;;;;;;-0.43;100.00;103408.06;5052253;28;20032;-57
2023/01/23 00:46:43;;;;;;;157.30;70.35;;;;;;;-0.42;100.00;103408.22;5052197;28;20029;-57
2023/01/23 00:49:08;;;;;;;96.15;25.83;;;;;;;-0.34;100.00;103411.66;5052775;28;20021;-57
2023/01/23 00:51:34;;;;;;;151.00;68.85;;;;;;;-0.39;100.00;103408.59;5051787;28;20373;-57
2023/01/23 00:54:00;;;;;;;142.30;66.60;;;;;;;-0.39;100.00;103408.59;5052318;28;20124;-57
2023/01/23 00:56:25;;;;;;;155.18;67.63;;;;;;;-0.38;100.00;103415.44;5052756;28;20021;-57
2023/01/23 00:58:50;;;;;;;145.35;67.50;;;;;;;-0.37;100.00;103398.63;5052192;28;20064;-57
2023/01/23 01:01:16;;;;;;;150.57;68.80;;;;;;;-0.37;100.00;103402.06;5052393;28;20431;-57
2023/01/23 01:03:43;;;;;;;154.73;66.70;;;;;;;-0.37;100.00;103394.47;5052216;28;20469;-57
2023/01/23 01:06:09;;;;;;;150.73;67.07;;;;;;;-0.36;100.00;103401.34;5051980;28;20021;-57
2023/01/23 01:08:34;;;;;;;145.48;67.60;;;;;;;-0.37;100.00;103407.13;5051784;28;20332;-57
2023/01/23 01:11:00;;;;;;;145.48;65.53;;;;;;;-0.37;100.00;103402.06;5052194;28;20049;-57
2023/01/23 01:13:25;;;;;;;145.60;64.25;;;;;;;-0.38;100.00;103415.44;5052064;28;20021;-57
2023/01/23 01:15:52;;;;;;;132.30;62.97;;;;;;;-0.36;100.00;103416.56;5052032;28;20032;-57
2023/01/23 01:18:18;;;;;;;153.50;66.10;;;;;;;-0.36;100.00;103403.00;5052527;28;20017;-57
2023/01/23 01:20:44;;;;;;;139.73;66.78;;;;;;;-0.36;100.00;103408.06;5051467;28;20035;-57
2023/01/23 01:23:10;;;;;;;146.82;67.28;;;;;;;-0.35;100.00;103410.75;5052066;28;20061;-57
2023/01/23 01:25:36;;;;;;;141.85;65.97;;;;;;;-0.35;100.00;103412.38;5052044;28;20106;-57
2023/01/23 01:28:02;;;;;;;142.05;64.50;;;;;;;-0.34;100.00;103420.19;5052045;28;20060;-57
2023/01/23 01:30:29;;;;;;;136.07;66.93;;;;;;;-0.35;100.00;103418.38;5051805;28;20021;-57
2023/01/23 01:32:54;;;;;;;136.40;65.53;;;;;;;-0.35;100.00;103414.91;5052204;28;20036;-57
2023/01/23 01:35:20;;;;;;;144.57;64.60;;;;;;;-0.35;100.00;103418.38;5051582;28;20021;-57
2023/01/23 01:37:46;;;;;;;135.98;64.93;;;;;;;-0.36;100.00;103424.16;5051445;28;20033;-57
2023/01/23 01:40:17;;;;;;;135.73;64.28;;;;;;;-0.35;100.00;103425.97;5054033;28;20025;-57
2023/01/23 01:42:47;;;;;;;141.02;64.18;;;;;;;-0.34;100.00;103427.78;5055378;28;20031;-57
2023/01/23 01:45:50;;;;;;;136.75;64.10;;;;;;;-0.28;100.00;103436.81;5055883;28;20025;-57
2023/01/23 01:48:17;;;;;;;144.82;66.15;;;;;;;-0.31;100.00;103429.75;5055039;28;20051;-57
2023/01/23 01:50:42;;;;;;;138.88;65.55;;;;;;;-0.28;100.00;103426.69;5055280;28;20029;-57
2023/01/23 01:53:09;;;;;;;141.20;64.55;;;;;;;-0.28;100.00;103429.22;5055710;28;20032;-57
2023/01/23 01:55:35;;;;;;;144.80;67.78;;;;;;;-0.28;100.00;103416.53;5054768;28;20062;-57
2023/01/23 01:58:00;;;;;;;136.10;62.63;;;;;;;-0.29;100.00;103419.78;5055466;28;20025;-57
2023/01/23 02:00:26;;;;;;;151.88;66.07;;;;;;;-0.29;100.00;103409.66;5055421;28;20380;-57
2023/01/23 02:02:57;;;;;;;138.88;64.97;;;;;;;-0.31;100.00;103417.09;5054654;28;20083;-57
2023/01/23 02:05:49;;;;;;;141.77;65.30;;;;;;;-0.26;100.00;103417.59;5055243;28;20033;-57
2023/01/23 02:08:39;;;;;;;150.50;66.32;;;;;;;-0.32;100.00;103427.03;5054196;28;20098;-57
2023/01/23 02:11:05;;;;;;;142.77;64.22;;;;;;;-0.36;100.00;103419.09;5054845;28;20081;-57
2023/01/23 02:13:35;;;;;;;147.75;66.60;;;;;;;-0.38;100.00;103418.00;5055109;28;20028;-57
2023/01/23 02:16:07;;;;;;;144.73;66.50;;;;;;;-0.39;100.00;103420.34;5054928;28;20492;-57
2023/01/23 02:18:34;;;;;;;139.57;64.30;;;;;;;-0.39;100.00;103426.34;5054519;28;20488;-57
2023/01/23 02:21:04;;;;;;;152.82;66.28;;;;;;;-0.39;100.00;103423.81;5055071;28;20021;-57
2023/01/23 02:23:51;;;;;;;152.05;67.80;;;;;;;-0.35;100.00;103420.91;5054155;28;20115;-57
2023/01/23 02:26:21;;;;;;;144.48;65.22;;;;;;;-0.39;100.00;103418.75;5054898;28;20108;-57
2023/01/23 02:28:50;;;;;;;155.60;67.43;;;;;;;-0.38;100.00;103419.63;5054729;28;20036;-57
2023/01/23 02:31:15;;;;;;;146.85;66.45;;;;;;;-0.40;100.00;103422.00;5054327;28;20070;-57
2023/01/23 02:33:44;;;;;;;143.38;66.65;;;;;;;-0.38;100.00;103415.44;5054295;28;20116;-56
2023/01/23 02:36:10;;;;;;;143.88;66.00;;;;;;;-0.39;100.00;103423.81;5054740;28;20036;-57
2023/01/23 02:38:41;;;;;;;150.40;68.88;;;;;;;-0.39;100.00;103423.81;5053906;28;20028;-57
2023/01/23 02:41:09;;;;;;;147.90;66.20;;;;;;;-0.39;100.00;103420.34;5054627;28;20096;-57
2023/01/23 02:43:37;;;;;;;154.73;69.47;;;;;;;-0.40;100.00;103422.00;5054192;28;20147;-57
2023/01/23 02:46:07;;;;;;;147.38;68.85;;;;;;;-0.37;100.00;103417.25;5054437;28;20071;-57
2023/01/23 02:48:32;;;;;;;150.57;68.55;;;;;;;-0.38;100.00;103414.56;5054166;28;20025;-57
2023/01/23 02:50:57;;;;;;;150.68;68.93;;;;;;;-0.38;100.00;103412.91;5053301;28;20031;-57
2023/01/23 02:53:24;;;;;;;146.60;68.22;;;;;;;-0.39;100.00;103413.69;5054340;28;20117;-58
2023/01/23 02:55:50;;;;;;;154.90;68.88;;;;;;;-0.38;100.00;103412.91;5054643;28;20086;-57
2023/01/23 03:00:58;;;;;;;158.13;69.57;;;;;;;-0.35;100.00;103425.97;5054146;28;20043;-57
2023/01/23 03:03:24;;;;;;;161.32;70.88;;;;;;;-0.33;100.00;103423.59;5054435;28;20383;-56
2023/01/23 03:05:50;;;;;;;156.57;68.78;;;;;;;-0.35;100.00;103423.44;5053473;28;20044;-57
2023/01/23 03:08:15;;;;;;;156.55;67.63;;;;;;;-0.32;100.00;103424.50;5054098;28;20021;-57
2023/01/23 03:10:41;;;;;;;152.50;68.28;;;;;;;-0.31;100.00;103426.31;5053697;28;20052;-57
2023/01/23 03:13:08;;;;;;;157.07;67.90;;;;;;;-0.31;100.00;103421.22;5053521;28;20032;-57
2023/01/23 03:15:37;;;;;;;157.27;68.13;;;;;;;-0.32;100.00;103419.41;5053449;28;20031;-57
2023/01/23 03:18:02;;;;;;;157.05;68.10;;;;;;;-0.33;100.00;103418.53;5053880;28;20685;-57
2023/01/23 03:20:28;;;;;;;162.65;71.32;;;;;;;-0.32;100.00;103420.34;5053340;28;20449;-57
2023/01/23 03:22:53;;;;;;;156.30;69.18;;;;;;;-0.34;100.00;103425.25;5053747;28;20049;-57
2023/01/23 03:25:19;;;;;;;160.75;72.10;;;;;;;-0.33;100.00;103418.53;5053939;28;20108;-57
2023/01/23 03:27:44;;;;;;;149.55;66.63;;;;;;;-0.33;100.00;103421.06;5053031;28;20366;-57
2023/01/23 03:30:12;;;;;;;169.13;73.78;;;;;;;-0.31;100.00;103428.84;5053479;28;20099;-57
2023/01/23 03:32:38;;;;;;;160.50;70.82;;;;;;;-0.30;100.00;103431.53;5053594;28;20100;-57
2023/01/23 03:35:04;;;;;;;157.85;71.32;;;;;;;-0.30;100.00;103431.53;5053041;28;20116;-57
2023/01/23 03:37:30;;;;;;;165.00;70.00;;;;;;;-0.29;100.00;103429.94;5053396;28;20064;-57
2023/01/23 03:42:39;;;;;;;155.55;70.63;;;;;;;-0.28;100.00;103431.75;5053402;28;20118;-57
2023/01/23 03:45:05;;;;;;;160.68;72.47;;;;;;;-0.27;100.00;103431.00;5053609;28;20513;-57
2023/01/23 03:47:31;;;;;;;163.32;71.85;;;;;;;-0.27;100.00;103424.31;5052756;28;20031;-57
2023/01/23 03:49:56;;;;;;;165.93;70.22;;;;;;;-0.29;100.00;103435.88;5053312;28;20021;-57
2023/01/23 03:52:22;;;;;;;166.77;71.80;;;;;;;-0.29;100.00;103430.81;5053247;28;20024;-57
2023/01/23 03:54:48;;;;;;;156.82;70.32;;;;;;;-0.28;100.00;103431.75;5052547;28;20035;-57
2023/01/23 03:57:13;;;;;;;157.82;69.68;;;;;;;-0.28;100.00;103434.28;5053065;28;20025;-57
2023/01/23 03:59:39;;;;;;;163.23;70.82;;;;;;;-0.27;100.00;103434.44;5052886;28;20075;-57
2023/01/23 04:02:04;;;;;;;158.80;71.10;;;;;;;-0.25;100.00;103424.47;5052717;28;20075;-57
2023/01/23 04:04:30;;;;;;;174.65;75.10;;;;;;;-0.21;100.00;103419.97;5052785;28;20392;-57
2023/01/23 04:06:56;;;;;;;158.38;69.18;;;;;;;-0.22;100.00;103422.28;5053205;28;20029;-57
2023/01/23 04:09:26;;;;;;;174.48;72.88;;;;;;;-0.22;100.00;103437.50;5052275;28;20122;-57
2023/01/23 04:11:52;;;;;;;160.18;71.70;;;;;;;-0.22;100.00;103433.34;5052393;28;20021;-57
2023/01/23 04:14:17;;;;;;;172.52;73.32;;;;;;;-0.22;100.00;103433.34;5053195;28;20025;-57
2023/01/23 04:16:43;;;;;;;169.63;71.72;;;;;;;-0.21;100.00;103434.25;5052233;28;20438;-57
2023/01/23 04:19:08;;;;;;;89.78;25.23;;;;;;;-0.13;100.00;103425.91;5052955;28;20036;-57
2023/01/23 04:21:33;;;;;;;172.93;71.82;;;;;;;-0.19;100.00;103423.53;5052840;28;20013;-57
2023/01/23 04:23:59;;;;;;;178.95;73.38;;;;;;;-0.17;100.00;103421.19;5052516;28;20492;-57
2023/01/23 04:26:24;;;;;;;174.20;72.53;;;;;;;-0.17;100.00;103422.09;5052477;28;20032;-57
2023/01/23 04:28:49;;;;;;;173.77;73.47;;;;;;;-0.14;100.00;103430.78;5052687;28;20384;-57
2023/01/23 04:31:14;;;;;;;182.20;74.45;;;;;;;-0.13;100.00;103430.97;5052128;28;20029;-57
2023/01/23 04:33:40;;;;;;;179.45;74.80;;;;;;;-0.13;100.00;103435.13;5052609;28;20017;-57
2023/01/23 04:36:06;;;;;;;175.18;74.47;;;;;;;-0.12;100.00;103435.28;5052751;28;20028;-57
2023/01/23 04:38:32;;;;;;;178.90;74.57;;;;;;;-0.14;100.00;103434.22;5051960;28;20064;-57
2023/01/23 04:40:59;;;;;;;179.27;75.20;;;;;;;-0.14;100.00;103426.63;5052615;28;20029;-57
2023/01/23 04:43:25;;;;;;;178.57;71.30;;;;;;;-0.14;100.00;103430.78;5052343;28;20033;-57
2023/01/23 04:45:52;;;;;;;165.82;72.13;;;;;;;-0.15;100.00;103434.94;5052213;28;20036;-57
2023/01/23 04:48:18;;;;;;;174.10;73.63;;;;;;;-0.15;100.00;103436.59;5052774;28;20032;-57
2023/01/23 04:50:43;;;;;;;175.57;73.82;;;;;;;-0.13;100.00;103447.78;5051794;28;20025;-57
2023/01/23 04:53:08;;;;;;;177.98;76.22;;;;;;;-0.13;100.00;103446.19;5052383;28;20414;-57
2023/01/23 04:55:34;;;;;;;168.57;74.80;;;;;;;-0.15;100.00;103442.56;5052143;28;20031;-57
2023/01/23 04:58:01;;;;;;;164.43;73.28;;;;;;;-0.14;100.00;103445.97;5052256;28;20453;-57
2023/01/23 05:00:27;;;;;;;181.32;74.82;;;;;;;-0.14;100.00;103451.97;5052437;28;20013;-57
2023/01/23 05:02:54;;;;;;;174.32;74.70;;;;;;;-0.14;100.00;103453.59;5052646;28;20032;-57
2023/01/23 05:05:22;;;;;;;179.13;75.53;;;;;;;-0.13;100.00;103455.41;5051914;28;20028;-57
2023/01/23 05:07:47;;;;;;;;;;;;;;;-0.04;100.00;103459.91;5052297;28;20021;-57
2023/01/23 05:10:13;;;;;;;172.27;71.47;;;;;;;-0.10;100.00;103458.31;5052220;28;19920;-57
2023/01/23 05:12:39;;;;;;;187.30;75.35;;;;;;;-0.12;100.00;103452.16;5051751;28;20103;-57
2023/01/23 05:15:05;;;;;;;176.07;72.68;;;;;;;-0.12;100.00;103455.56;5053949;28;20436;-57
2023/01/23 05:17:31;;;;;;;190.52;75.70;;;;;;;-0.13;100.00;103461.38;5056135;28;20060;-57
2023/01/23 05:19:56;;;;;;;175.65;75.25;;;;;;;-0.12;100.00;103460.63;5055618;28;20056;-57
2023/01/23 05:22:21;;;;;;;177.60;74.45;;;;;;;-0.14;100.00;103458.66;5056152;28;20060;-57
2023/01/23 05:24:47;;;;;;;175.10;74.45;;;;;;;-0.12;100.00;103459.75;5055796;28;20028;-57
2023/01/23 05:27:12;;;;;;;173.60;74.53;;;;;;;-0.14;100.00;103461.19;5055621;28;20075;-57
2023/01/23 05:29:38;;;;;;;174.85;74.57;;;;;;;-0.13;100.00;103466.47;5055631;28;20473;-57
2023/01/23 05:32:03;;;;;;;177.38;75.18;;;;;;;-0.14;100.00;103472.25;5056107;28;20492;-57
2023/01/23 05:34:29;;;;;;;179.05;77.55;;;;;;;-0.13;100.00;103469.00;5054971;28;20033;-57
2023/01/23 05:36:54;;;;;;;179.10;75.85;;;;;;;-0.13;100.00;103471.53;5055967;28;20029;-57
2023/01/23 05:39:19;;;;;;;174.05;76.60;;;;;;;-0.14;100.00;103462.13;5055922;28;20350;-57
2023/01/23 05:41:44;;;;;;;191.20;77.53;;;;;;;-0.11;100.00;103465.00;5054977;28;20025;-57
2023/01/23 05:44:10;;;;;;;182.93;77.07;;;;;;;-0.11;100.00;103466.63;5055852;28;20053;-57
2023/01/23 05:46:35;;;;;;;184.85;79.53;;;;;;;-0.10;100.00;103470.97;5055003;28;20037;-57
2023/01/23 05:49:00;;;;;;;186.88;77.30;;;;;;;-0.09;100.00;103475.28;5055588;28;20033;-57
2023/01/23 05:51:31;;;;;;;178.73;74.47;;;;;;;-0.11;100.00;103465.00;5055549;28;20017;-57
2023/01/23 05:53:57;;;;;;;172.73;75.72;;;;;;;-0.10;100.00;103474.41;5055073;28;20029;-57
2023/01/23 05:56:23;;;;;;;188.95;79.97;;;;;;;-0.10;100.00;103469.34;5055486;28;20036;-57
2023/01/23 05:58:48;;;;;;;182.27;76.97;;;;;;;-0.10;100.00;103466.81;5055378;28;20025;-57
2023/01/23 06:01:13;;;;;;;185.80;78.80;;;;;;;-0.09;100.00;103472.75;5055018;28;20025;-57
2023/01/23 06:03:39;;;;;;;180.88;76.60;;;;;;;-0.09;100.00;103473.69;5054731;28;20469;-57
2023/01/23 06:06:04;;;;;;;183.25;78.53;;;;;;;-0.07;100.00;103478.94;5055235;28;20040;-57
2023/01/23 06:08:30;;;;;;;179.25;77.30;;;;;;;-0.04;100.00;103487.78;5054418;28;20017;-57
2023/01/23 06:10:57;;;;;;;173.65;77.90;;;;;;;-0.06;100.00;103489.22;5054849;28;20041;-57
2023/01/23 06:13:24;;;;;;;175.48;73.07;;;;;;;-0.03;100.00;103487.06;5055408;28;20025;-57
2023/01/23 06:15:49;;;;;;;167.27;73.25;;;;;;;-0.05;100.00;103488.50;5054532;28;20029;-57
2023/01/23 06:18:14;;;;;;;171.73;75.20;;;;;;;-0.04;100.00;103490.34;5054935;28;20385;-57
2023/01/23 06:20:40;;;;;;;159.85;72.65;;;;;;;-0.02;100.00;103493.94;5054868;28;20025;-57
2023/01/23 06:23:05;;;;;;;168.60;74.45;;;;;;;-0.02;100.00;103488.84;5054449;28;20461;-57
2023/01/23 06:25:30;;;;;;;170.68;72.35;;;;;;;-0.01;100.00;103498.28;5054245;28;20120;-57
2023/01/23 06:27:55;;;;;;;173.68;73.10;;;;;;;0.01;100.00;103495.03;5054353;28;20048;-57
2023/01/23 06:30:21;;;;;;;166.07;74.10;;;;;;;0.02;100.00;103495.19;5054509;28;20405;-57
2023/01/23 06:32:46;;;;;;;164.60;74.35;;;;;;;0.02;100.00;103500.25;5054557;28;20395;-57
2023/01/23 06:35:11;;;;;;;166.93;74.30;;;;;;;0.02;100.00;103499.38;5054892;28;20383;-57
2023/01/23 06:37:37;;;;;;;176.18;74.32;;;;;;;0.04;100.00;103498.81;5053734;28;20155;-57
2023/01/23 06:40:03;;;;;;;166.32;72.68;;;;;;;0.05;100.00;103504.78;5054953;28;20048;-57
2023/01/23 06:42:28;;;;;;;161.07;70.38;;;;;;;0.05;100.00;103497.19;5054288;28;20456;-57
2023/01/23 06:44:53;;;;;;;162.43;74.60;;;;;;;0.05;100.00;103494.63;5053973;28;20028;-57
2023/01/23 06:47:19;;;;;;;169.85;74.05;;;;;;;0.05;100.00;103490.47;5054468;28;20025;-57
2023/01/23 06:49:44;;;;;;;158.77;70.93;;;;;;;0.05;100.00;103504.78;5054107;28;20044;-57
2023/01/23 06:52:09;;;;;;;163.30;73.20;;;;;;;0.08;100.00;103500.97;5053912;28;20440;-56
2023/01/23 06:54:35;;;;;;;159.68;72.93;;;;;;;0.08;100.00;103494.97;5054069;28;20142;-57
2023/01/23 06:57:00;;;;;;;159.27;71.78;;;;;;;0.07;100.00;103504.22;5053993;28;20067;-57
2023/01/23 06:59:25;;;;;;;165.15;70.10;;;;;;;0.07;100.00;103509.31;5054306;28;20100;-57
2023/01/23 07:01:51;;;;;;;157.82;67.20;;;;;;;0.07;100.00;103513.47;5053966;28;20035;-57
2023/01/23 07:04:16;;;;;;;153.77;70.25;;;;;;;0.09;100.00;103517.06;5053765;28;20032;-57
2023/01/23 07:06:41;;;;;;;150.10;66.60;;;;;;;0.09;100.00;103517.06;5053663;28;20036;-57
2023/01/23 07:09:07;;;;;;;155.60;68.72;;;;;;;0.12;100.00;103517.44;5054177;28;20167;-57
2023/01/23 07:11:32;;;;;;;147.68;69.55;;;;;;;0.13;100.00;103514.16;5053569;28;20021;-57
2023/01/23 07:13:57;;;;;;;144.18;66.70;;;;;;;0.14;100.00;103526.13;5054029;28;20029;-57
2023/01/23 07:16:23;;;;;;;161.63;72.80;;;;;;;0.17;100.00;103529.03;5053950;28;20025;-57
2023/01/23 07:18:49;;;;;;;143.52;67.63;;;;;;;0.16;100.00;103522.13;5053258;28;20108;-57
2023/01/23 07:21:14;;;;;;;147.85;70.55;;;;;;;0.19;100.00;103524.13;5053680;28;20112;-57
2023/01/23 07:23:39;;;;;;;159.75;72.15;;;;;;;0.22;100.00;103522.84;5053386;28;20032;-57
2023/01/23 07:26:08;;;;;;;142.43;67.82;;;;;;;0.23;100.00;103532.25;5053284;28;20126;-57
2023/01/23 07:28:37;;;;;;;143.48;68.13;;;;;;;0.24;100.00;103539.13;5053333;28;20064;-57
2023/01/23 07:31:03;;;;;;;144.15;68.38;;;;;;;0.25;100.00;103540.06;5053774;28;20021;-57
2023/01/23 07:33:29;;;;;;;140.00;67.97;;;;;;;0.26;100.00;103537.69;5052522;28;20040;-57
2023/01/23 07:35:54;;;;;;;140.35;68.30;;;;;;;0.27;100.00;103552.19;5053235;28;20032;-57
2023/01/23 07:38:22;;;;;;;152.20;68.75;;;;;;;0.28;100.00;103540.41;5053424;28;20021;-57
2023/01/23 07:40:47;;;;;;;;;;;;;;;0.39;100.00;103549.22;5053112;28;20392;-57
2023/01/23 07:43:12;;;;;;;151.32;70.78;;;;;;;0.31;100.00;103550.88;5053368;28;19915;-57
2023/01/23 07:45:38;;;;;;;141.43;66.88;;;;;;;0.30;100.00;103552.53;5053024;28;20083;-57
2023/01/23 07:48:03;;;;;;;150.57;68.70;;;;;;;0.31;100.00;103551.81;5052659;28;20047;-57
2023/01/23 07:50:28;;;;;;;138.75;67.30;;;;;;;0.32;100.00;103552.69;5053045;28;20032;-57
2023/01/23 07:52:54;;;;;;;137.77;67.30;;;;;;;0.35;100.00;103558.13;5053195;28;20500;-57
2023/01/23 07:55:19;;;;;;;138.68;65.90;;;;;;;0.36;100.00;103567.53;5052640;28;20025;-57
2023/01/23 07:57:44;;;;;;;141.55;68.93;;;;;;;0.37;100.00;103555.78;5053045;28;20388;-57
2023/01/23 08:00:10;;;;;;;143.93;67.95;;;;;;;0.38;100.00;103570.28;5052750;28;20483;-57
2023/01/23 08:02:37;;;;;;;137.45;66.53;;;;;;;0.39;100.00;103565.38;5052738;28;20056;-57
2023/01/23 08:05:02;;;;;;;137.15;65.85;;;;;;;0.40;100.00;103566.25;5053131;28;20079;-57
2023/01/23 08:07:27;;;;;;;131.30;66.50;;;;;;;0.43;100.00;103570.06;5052112;28;20033;-57
2023/01/23 08:09:53;;;;;;;139.27;69.88;;;;;;;0.44;100.00;103561.72;5052598;28;20045;-57
2023/01/23 08:12:18;;;;;;;135.93;66.00;;;;;;;0.45;100.00;103566.06;5053104;28;20029;-57
2023/01/23 08:14:43;;;;;;;128.05;63.28;;;;;;;0.47;100.00;103568.78;5052240;28;20035;-57
2023/01/23 08:17:09;;;;;;;136.80;65.93;;;;;;;0.48;100.00;103563.00;5052526;28;20185;-56
2023/01/23 08:19:34;;;;;;;126.93;64.13;;;;;;;0.51;100.00;103576.00;5052597;28;20037;-57
2023/01/23 08:21:59;;;;;;;129.88;67.65;;;;;;;0.54;100.00;103570.38;5052439;28;20033;-57
2023/01/23 08:24:25;;;;;;;130.15;65.03;;;;;;;0.56;100.00;103579.97;5052513;28;20028;-57
2023/01/23 08:26:50;;;;;;;126.30;65.18;;;;;;;0.57;100.00;103574.19;5052585;28;20036;-57
2023/01/23 08:29:15;;;;;;;122.00;61.38;;;;;;;0.60;100.00;103579.59;5052372;28;20446;-57
2023/01/23 08:31:40;;;;;;;130.45;63.65;;;;;;;0.62;100.00;103583.22;5052340;28;20025;-57
2023/01/23 08:34:06;;;;;;;122.07;63.42;;;;;;;0.65;100.00;103586.09;5052697;28;20025;-58
2023/01/23 08:36:31;;;;;;;127.75;63.65;;;;;;;0.67;100.00;103588.81;5051944;28;20036;-55
2023/01/23 08:38:56;;;;;;;128.50;63.50;;;;;;;0.68;100.00;103589.72;5052636;28;20090;-56
2023/01/23 08:41:22;;;;;;;124.00;62.72;;;;;;;0.71;100.00;103596.06;5052675;28;20091;-56
2023/01/23 08:43:48;;;;;;;127.05;63.60;;;;;;;0.75;100.00;103589.69;5051609;28;20108;-56
2023/01/23 08:46:14;;;;;;;120.47;62.38;;;;;;;0.77;100.00;103590.78;5052734;28;20063;-56
2023/01/23 08:48:39;;;;;;;121.50;62.15;;;;;;;0.82;100.00;103590.53;5052281;28;20064;-56
2023/01/23 08:51:09;;;;;;;116.97;61.85;;;;;;;0.85;100.00;103600.16;5055185;28;20025;-56
2023/01/23 08:53:34;;;;;;;118.50;59.53;;;;;;;0.89;100.00;103596.31;5056363;28;20029;-56
2023/01/23 08:56:02;;;;;;;116.00;59.78;;;;;;;0.93;100.00;103594.31;5056806;28;20033;-56
2023/01/23 08:58:28;;;;;;;109.90;58.63;;;;;;;0.98;100.00;103598.28;5055644;28;20380;-56
2023/01/23 09:00:53;;;;;;;113.75;58.75;;;;;;;1.05;100.00;103598.97;5056765;28;20624;-56
2023/01/23 09:03:18;;;;;;;109.25;57.15;;;;;;;1.08;100.00;103601.84;5056469;28;20104;-56
2023/01/23 09:05:44;;;;;;;119.43;58.75;;;;;;;1.08;100.00;103592.59;5055294;28;20523;-56
2023/01/23 09:08:09;;;;;;;106.55;55.17;;;;;;;1.17;100.00;103600.34;5056616;28;20049;-56
2023/01/23 09:10:35;;;;;;;107.45;56.42;;;;;;;1.19;100.00;103601.44;5055417;28;20427;-56
2023/01/23 09:13:00;;;;;;;112.07;54.85;;;;;;;1.27;100.00;103608.25;5056267;28;20040;-56
2023/01/23 09:15:26;;;;;;;107.18;55.80;;;;;;;1.31;100.00;103605.31;5056193;28;20029;-56
2023/01/23 09:17:51;;;;;;;106.10;53.70;;;;;;;1.31;100.00;103606.97;5055503;28;20021;-56
2023/01/23 09:20:16;;;;;;;95.68;51.70;;;;;;;1.35;100.00;103605.69;5055966;28;20017;-56
2023/01/23 09:22:42;;;;;;;91.47;49.80;;;;;;;1.37;100.00;103604.19;5056007;28;20501;-56
2023/01/23 09:25:07;;;;;;;102.13;53.38;;;;;;;1.41;100.00;103599.63;5055598;28;20032;-57
2023/01/23 09:27:33;;;;;;;98.63;50.70;;;;;;;1.43;100.00;103594.72;5055588;28;20580;-56
2023/01/23 09:29:58;;;;;;;101.57;50.00;;;;;;;1.43;100.00;103593.09;5056048;28;20457;-57
2023/01/23 09:32:23;;;;;;;94.95;49.72;;;;;;;1.50;100.00;103589.59;5055398;28;20040;-56
2023/01/23 09:34:49;;;;;;;87.68;49.50;;;;;;;1.54;100.00;103598.47;5055242;28;20028;-56
2023/01/23 09:37:15;;;;;;;92.85;50.17;;;;;;;1.57;100.00;103594.59;5056049;28;20052;-56
2023/01/23 09:39:43;;;;;;;99.18;50.58;;;;;;;1.61;100.00;103600.94;5055172;28;20032;-56
2023/01/23 09:42:17;;;;;;;95.45;50.33;;;;;;;1.64;100.00;103606.38;5055565;28;20430;-56
2023/01/23 09:44:47;;;;;;;94.03;50.97;;;;;;;1.70;100.00;103601.94;5055607;28;20496;-56
2023/01/23 09:47:22;;;;;;;96.35;49.05;;;;;;;1.72;100.00;103614.84;5054751;28;20037;-56
2023/01/23 09:49:56;;;;;;;92.32;49.50;;;;;;;1.77;100.00;103614.63;5055317;28;20076;-56
2023/01/23 09:52:27;;;;;;;87.13;48.85;;;;;;;1.77;100.00;103614.63;5055481;28;20385;-57
2023/01/23 09:55:14;;;;;;;92.30;48.63;;;;;;;1.78;100.00;103626.59;5054928;28;20024;-56
2023/01/23 09:57:51;;;;;;;89.37;46.83;;;;;;;1.78;100.00;103628.22;5055444;28;20112;-57
2023/01/23 10:00:30;;;;;;;83.65;45.78;;;;;;;1.81;100.00;103632.00;5054934;28;20310;-56
2023/01/23 10:02:58;;;;;;;94.53;48.40;;;;;;;1.83;100.00;103624.53;5055354;28;20017;-57
2023/01/23 10:05:39;;;;;;;84.60;47.47;;;;;;;1.84;100.00;103628.91;5055446;28;20021;-56
2023/01/23 10:08:26;;;;;;;84.93;46.78;;;;;;;1.91;100.00;103620.28;5054608;28;20047;-56
2023/01/23 10:10:58;;;;;;;84.28;47.47;;;;;;;1.92;100.00;103623.00;5054796;28;20070;-57
2023/01/23 10:13:34;;;;;;;82.90;46.28;;;;;;;1.92;100.00;103620.47;5055360;28;20025;-57
2023/01/23 10:16:05;;;;;;;83.20;46.00;;;;;;;1.94;100.00;103616.47;5054533;28;20040;-57
2023/01/23 10:18:53;;;;;;;83.90;47.20;;;;;;;2.02;100.00;103619.84;5054762;28;20028;-57
2023/01/23 10:21:43;;;;;;;83.22;46.03;;;;;;;2.11;100.00;103627.56;5054739;28;20029;-56
2023/01/23 10:24:31;;;;;;;90.15;46.90;;;;;;;2.07;100.00;103626.31;5054798;28;20098;-57
2023/01/23 10:27:02;;;;;;;82.35;46.42;;;;;;;2.10;100.00;103633.38;5054806;28;20384;-56
2023/01/23 10:29:40;;;;;;;85.40;46.08;;;;;;;2.10;100.00;103633.38;5054069;28;20021;-56
2023/01/23 10:32:15;;;;;;;;;;;;;;;2.24;100.00;103625.63;5055449;28;20033;-56
2023/01/23 10:34:53;;;;;;;80.78;45.28;;;;;;;2.15;100.00;103624.63;5054538;28;20296;-57
2023/01/23 10:37:49;;;;;;;80.95;45.72;;;;;;;2.23;100.00;103622.91;5054493;28;20477;-56
2023/01/23 10:41:12;;;;;;;79.20;44.22;;;;;;;2.14;100.00;103625.34;5054080;28;20041;-56
2023/01/23 10:43:08;;;;;;;79.90;44.13;;;;;;;2.20;100.00;103628.56;5053811;28;20037;-56
2023/01/23 10:45:35;;;;;;;75.82;44.50;;;;;;;2.19;100.00;103628.41;5054280;28;20029;-56
2023/01/23 10:48:00;;;;;;;79.75;46.22;;;;;;;2.20;100.00;103628.56;5054748;28;20032;-56
2023/01/23 10:50:38;;;;;;;72.38;43.15;;;;;;;2.21;100.00;103620.19;5053908;28;20066;-56
2023/01/23 10:53:17;;;;;;;79.30;45.30;;;;;;;2.20;100.00;103623.47;5054485;28;20048;-56
2023/01/23 10:55:44;;;;;;;78.90;43.88;;;;;;;2.24;100.00;103617.09;5054221;28;20137;-57
2023/01/23 10:58:31;;;;;;;77.05;44.75;;;;;;;2.26;100.00;103613.97;5053526;28;20113;-56
2023/01/23 11:00:57;;;;;;;71.07;42.03;;;;;;;2.26;100.00;103616.50;5054538;28;20025;-57
2023/01/23 11:03:29;;;;;;;78.45;43.67;;;;;;;2.22;100.00;103616.94;5053814;28;20063;-57
2023/01/23 11:06:02;;;;;;;76.80;43.60;;;;;;;2.32;100.00;103607.72;5054096;28;20106;-57